Chadstone Weather > Observations for 14/03/21

Select Day:



Observations
Time Temp Hum DP Wind Gust Dir Rain >9am Press
C % C kph kph mm hPa
00:00 14.5 85 12.0 1.3 7.2 SW 22.2 1000.2
00:10 14.3 84 11.6 0.8 3.6 SW 22.2 1000.4
00:20 14.2 84 11.5 0.4 3.6 SSW 22.2 1000.1
00:30 14.1 84 11.4 1.2 15.8 SW 22.2 1000.2
00:40 14.2 84 11.5 1.1 6.1 N 22.2 1000.0
00:50 14.3 85 11.8 3.0 12.2 W 22.2 999.9
01:00 14.2 84 11.5 1.7 7.2 SSW 22.2 999.8
01:10 14.1 84 11.4 1.6 7.2 WNW 22.2 1000.2
01:20 14.0 84 11.3 0.7 7.2 SSW 22.2 999.9
01:30 14.0 85 11.5 0.3 9.7 SSW 22.2 999.8
01:40 13.6 85 11.1 2.9 12.2 WSW 22.2 999.6
01:50 13.6 85 11.1 0.7 5.0 NW 22.2 1000.2
02:00 13.6 83 10.8 1.6 9.7 SSW 22.2 999.8
02:10 13.8 83 11.0 3.3 11.2 SSW 22.2 1000.4
02:20 13.9 82 10.9 2.1 9.7 SW 22.2 1000.4
02:30 13.9 81 10.7 1.5 7.2 SW 22.2 1000.5
02:40 13.8 79 10.2 1.2 11.2 SW 22.2 1000.3
02:50 13.5 78 9.7 0.7 6.1 WSW 22.2 1000.2
03:00 13.6 78 9.8 0.3 5.0 SSW 22.2 1000.4
03:10 13.6 79 10.0 3.2 15.8 SSW 22.8 1000.3
03:20 13.4 81 10.2 3.3 13.3 S 23.7 1000.5
03:30 12.6 83 9.8 6.9 19.4 S 23.7 1000.3
03:40 12.3 84 9.7 6.6 15.8 SSW 23.7 1000.2
03:50 12.3 84 9.7 3.7 13.3 S 23.7 1000.9
04:00 12.3 85 9.9 1.6 9.7 S 23.7 1000.3
04:10 12.2 86 9.9 0.3 5.0 SSW 23.7 1000.1
04:20 12.4 87 10.3 1.2 6.1 SSE 23.7 1000.8
04:30 12.6 87 10.5 1.9 6.1 SE 23.7 1000.5
04:40 12.5 87 10.4 2.1 8.6 SSE 23.7 1000.5
04:50 12.5 87 10.4 2.3 9.7 SSE 23.7 1000.6
05:00 12.4 86 10.1 2.6 9.7 SSE 23.7 1001.0
05:10 12.4 86 10.1 1.8 8.6 SSE 23.7 1000.8
05:20 12.2 86 9.9 2.7 8.6 SSE 23.7 1001.1
05:30 12.2 85 9.8 3.7 12.2 SSE 23.7 1001.0
05:40 12.2 84 9.6 4.4 12.2 SSE 23.7 1001.5
05:50 12.2 83 9.4 3.4 9.7 SSE 23.7 1001.2
06:00 12.2 83 9.4 4.0 11.2 SSW 23.7 1001.3
06:10 12.3 82 9.3 4.5 11.2 S 23.7 1001.3
06:20 12.4 81 9.2 3.9 11.2 SSE 23.7 1002.0
06:30 12.3 81 9.1 3.1 8.6 S 23.7 1001.8
06:40 12.3 81 9.1 1.8 8.6 S 23.7 1001.8
06:50 12.2 81 9.0 1.5 6.1 SSE 23.7 1001.8
07:00 12.0 82 9.0 0.3 3.6 S 23.7 1002.1
07:10 11.9 83 9.1 0.5 6.1 S 23.7 1002.3
07:20 12.1 83 9.3 0.0 1.1 WSW 23.7 1002.1
07:30 12.1 84 9.5 0.0 2.5 SSW 23.7 1002.4
07:40 11.9 86 9.6 1.4 6.1 SSE 23.7 1002.6
07:50 12.0 85 9.6 1.7 9.7 SSE 23.7 1002.8
08:00 12.3 84 9.7 3.6 9.7 SSE 23.7 1003.0
08:10 12.8 83 10.0 3.5 8.6 SSE 23.7 1003.1
08:20 13.2 78 9.5 5.8 17.3 SSE 23.7 1003.3
08:30 13.6 74 9.1 4.3 13.3 S 23.7 1003.4
08:40 13.7 70 8.3 4.9 13.3 S 23.7 1003.5
08:50 13.9 70 8.5 5.5 14.8 NNW 23.7 1003.7
09:00 14.5 67 8.5 6.8 18.4 SSE 23.7 1003.9
09:10 14.8 64 8.1 5.4 13.3 S 23.7 1003.9
09:20 14.9 64 8.2 6.2 14.8 SSE 23.7 1003.9
09:30 15.1 63 8.1 6.9 23.4 SSE 23.7 1003.9
09:40 15.3 61 7.8 5.7 18.4 S 23.7 1004.0
09:50 15.5 58 7.3 7.8 18.4 SW 23.7 1003.9
10:00 15.8 58 7.6 6.7 19.4 SSE 0.0 1004.1
10:10 15.7 57 7.2 9.4 20.9 SSE 0.0 1004.5
10:20 15.5 57 7.0 6.1 22.0 SSE 0.0 1005.1
10:30 15.7 60 8.0 5.8 22.0 S 0.0 1005.4
10:40 16.2 58 7.9 3.5 13.3 S 0.0 1005.8
10:50 16.4 57 7.9 5.7 18.4 S 0.0 1005.9
11:00 16.1 55 7.1 6.1 14.8 SSE 0.0 1006.1
11:10 16.1 56 7.3 4.2 22.0 S 0.0 1006.3
11:20 16.7 55 7.6 7.1 25.6 S 0.0 1006.1
11:30 17.0 53 7.4 5.2 19.4 S 0.0 1006.4
11:40 16.5 53 6.9 4.4 13.3 SSE 0.0 1006.3
11:50 16.5 54 7.2 4.3 12.2 ESE 0.0 1005.9
12:00 17.3 47 5.9 4.1 17.3 SW 0.0 1006.2
12:10 17.4 49 6.6 4.6 12.2 S 0.0 1006.3
12:20 17.6 49 6.8 4.1 14.8 SW 0.0 1006.5
12:30 17.2 52 7.3 5.8 18.4 S 0.0 1006.4
12:40 17.6 51 7.4 3.8 11.2 S 0.0 1006.3
12:50 18.1 46 6.3 4.5 18.4 S 0.0 1006.4
13:00 18.0 47 6.5 4.3 15.8 SW 0.0 1006.2
13:10 17.4 49 6.6 3.4 15.8 WSW 0.0 1006.4
13:20 18.4 49 7.5 4.7 15.8 NE 0.0 1006.3
13:30 18.2 47 6.7 5.8 25.6 SSE 0.0 1006.5
13:40 17.8 50 7.2 4.3 15.8 SW 0.0 1006.4
13:50 18.1 46 6.3 5.8 19.4 SSW 0.0 1006.4
14:00 18.2 46 6.4 4.9 13.3 SSW 0.0 1006.4
14:10 18.6 47 7.1 3.3 12.2 SSE 0.0 1006.4
14:20 18.4 47 6.9 3.3 14.8 SSW 0.0 1006.4
14:30 18.0 49 7.1 4.5 14.8 S 0.0 1006.4
14:40 18.0 53 8.3 5.5 23.4 S 0.0 1006.4
14:50 17.8 50 7.2 5.0 12.2 SW 0.0 1006.4
15:00 17.5 51 7.3 5.0 13.3 SSW 0.0 1006.4
15:10 18.0 50 7.4 3.2 11.2 S 0.0 1006.5
15:20 18.2 50 7.6 4.4 13.3 SSE 0.0 1006.5
15:30 18.0 44 5.6 4.6 14.8 S 0.0 1006.6
15:40 18.0 46 6.2 4.3 12.2 SE 0.0 1006.5
15:50 18.2 44 5.8 3.5 11.2 SSW 0.0 1006.5
16:00 18.3 39 4.1 3.9 13.3 S 0.0 1006.5
16:10 18.4 35 2.7 4.6 18.4 S 0.0 1006.5
16:20 18.4 35 2.7 5.7 19.4 SSE 0.0 1006.6
16:30 18.2 33 1.7 3.5 22.0 S 0.0 1006.5
16:40 18.1 33 1.6 2.9 18.4 S 0.0 1006.5
16:50 17.9 37 3.0 5.2 19.4 S 0.0 1006.4
17:00 17.9 41 4.5 4.4 13.3 S 0.0 1006.5
17:10 17.7 42 4.6 5.1 18.4 WSW 0.0 1006.5
17:20 17.4 44 5.0 4.7 13.3 SSE 0.0 1006.5
17:30 17.4 46 5.7 5.3 17.3 S 0.0 1006.6
17:40 17.5 50 7.0 4.0 12.2 S 0.0 1006.8
17:50 17.5 49 6.7 4.5 12.2 SSW 0.0 1006.8
18:00 17.3 46 5.6 5.6 20.9 SSW 0.0 1006.8
18:10 17.0 46 5.3 3.8 13.3 S 0.0 1006.9
18:20 16.9 47 5.5 4.8 22.0 SSE 0.0 1007.0
18:30 16.8 51 6.6 5.9 19.4 SSE 0.0 1006.9
18:40 16.7 52 6.8 2.9 12.2 SSE 0.0 1006.8
18:50 16.6 54 7.3 1.7 12.2 SSW 0.0 1006.8
19:00 16.4 54 7.1 1.4 11.2 SSW 0.0 1006.7
19:10 16.3 56 7.5 1.7 11.2 W 0.0 1006.6
19:20 16.1 55 7.1 0.8 15.8 SSE 0.0 1006.6
19:30 16.0 54 6.7 2.4 15.8 SSE 0.0 1006.7
19:40 15.8 55 6.8 0.3 6.1 SW 0.0 1006.9
19:50 15.5 55 6.5 0.2 6.1 S 0.0 1006.8
20:00 15.4 56 6.7 0.2 8.6 SW 0.0 1006.9
20:10 15.3 58 7.1 0.4 3.6 SW 0.0 1007.2
20:20 15.2 59 7.2 0.2 3.6 SSW 0.0 1007.4
20:30 15.1 61 7.6 0.2 5.0 W 0.0 1007.6
20:40 15.0 62 7.8 0.8 3.6 S 0.0 1007.8
20:50 14.8 64 8.1 0.0 0.0 N 0.0 1008.4
21:00 14.8 65 8.3 0.0 5.0 S 0.0 1008.7
21:10 14.7 66 8.4 0.0 3.6 SSE 0.0 1008.8
21:20 14.5 65 8.0 1.8 6.1 SSE 0.0 1009.0
21:30 14.5 65 8.0 1.2 5.0 SE 0.0 1009.1
21:40 14.7 65 8.2 1.1 5.0 NE 0.0 1009.1
21:50 14.7 65 8.2 1.8 5.0 ESE 0.0 1008.5
22:00 14.8 65 8.3 1.4 5.0 NNE 0.0 1008.3
22:10 14.8 65 8.3 0.3 3.6 SE 0.0 1008.2
22:20 14.8 66 8.5 0.2 3.6 NNE 0.0 1008.2
22:30 14.7 66 8.4 0.0 1.1 NE 0.0 1008.0
22:40 14.6 67 8.5 0.0 0.0 N 0.0 1007.9
22:50 14.5 68 8.7 0.0 2.5 N 0.0 1007.9
23:00 14.3 68 8.5 0.1 2.5 NNE 0.0 1007.6
23:10 14.2 69 8.6 0.0 0.0 N 0.0 1007.6
23:20 14.1 69 8.5 0.0 0.0 N 0.0 1007.7
23:30 14.0 70 8.6 0.0 0.0 N 0.0 1007.6
23:40 13.9 71 8.7 0.2 2.5 N 0.0 1007.4
23:50 13.9 71 8.7 0.0 2.5 NNW 0.0 1007.4